Time;durP1;ratioP1;P1;durP2;ratioP2;P2;SDS_P1;SDS_P2;PMS_P1;PMS_P2;Temp;Humidity;BMP_temperature;BMP_pressure;BME280_temperature;BME280_humidity;BME280_pressure;Samples;Min_cycle;Max_cycle;Signal;HPM_P1;HPM_P2
2023/02/21 02:15:08;;;;;;;70.95;44.92;;;;;;;9.68;100.00;101967.66;5226719;28;20065;-73
2023/02/21 02:17:42;;;;;;;76.35;43.72;;;;;;;9.65;100.00;101968.69;5219106;28;20360;-73
2023/02/21 02:20:32;;;;;;;74.95;45.58;;;;;;;9.75;100.00;101961.09;5202413;28;20064;-73
2023/02/21 02:23:34;;;;;;;70.63;46.15;;;;;;;9.77;100.00;101950.53;5223730;28;20056;-73
2023/02/21 02:26:27;;;;;;;71.68;45.03;;;;;;;9.55;100.00;101958.91;5222506;28;20072;-73
2023/02/21 02:29:23;;;;;;;70.93;44.72;;;;;;;9.66;100.00;101954.69;5218595;28;20028;-73
2023/02/21 02:32:32;;;;;;;74.38;46.78;;;;;;;9.72;100.00;101964.75;5219524;28;20033;-73
2023/02/21 02:35:12;;;;;;;72.60;46.20;;;;;;;9.60;100.00;101952.44;5215675;28;20491;-73
2023/02/21 02:38:05;;;;;;;73.07;45.65;;;;;;;9.71;100.00;101959.63;5216215;28;20065;-73
2023/02/21 02:41:08;;;;;;;73.00;44.28;;;;;;;9.59;100.00;101950.78;5201210;28;20491;-73
2023/02/21 02:43:51;;;;;;;76.55;44.17;;;;;;;9.52;100.00;101946.03;5219490;28;20068;-73
2023/02/21 02:46:33;;;;;;;74.88;48.00;;;;;;;9.43;100.00;101948.28;5226886;28;20107;-73
2023/02/21 02:49:18;;;;;;;76.60;45.63;;;;;;;9.57;100.00;101934.31;5228082;28;20055;-73
2023/02/21 02:51:51;;;;;;;74.90;45.72;;;;;;;9.43;100.00;101940.44;5223115;28;20555;-73
2023/02/21 02:54:22;;;;;;;78.85;46.45;;;;;;;9.46;100.00;101936.75;5220358;28;20029;-73
2023/02/21 02:56:53;;;;;;;78.93;46.58;;;;;;;9.46;100.00;101937.59;5224045;28;20022;-73
2023/02/21 02:59:28;;;;;;;78.50;47.25;;;;;;;9.44;100.00;101926.41;5219402;28;20029;-73
2023/02/21 03:02:21;;;;;;;79.13;46.00;;;;;;;9.59;100.00;101929.84;5229689;28;20044;-73
2023/02/21 03:05:01;;;;;;;81.32;45.03;;;;;;;9.49;100.00;101929.56;5219996;28;20034;-73
2023/02/21 03:08:02;;;;;;;78.40;45.53;;;;;;;9.63;100.00;101933.94;5221590;28;20030;-73
2023/02/21 03:10:43;;;;;;;75.72;42.97;;;;;;;9.46;100.00;101931.53;5218110;28;20117;-73
2023/02/21 03:13:42;;;;;;;76.40;44.45;;;;;;;9.58;100.00;101927.31;5218011;28;20026;-73
2023/02/21 03:16:38;;;;;;;74.55;43.65;;;;;;;9.55;100.00;101920.50;5220169;28;20375;-73
2023/02/21 03:19:13;;;;;;;72.95;42.65;;;;;;;9.37;100.00;101932.13;5218287;28;20060;-73
2023/02/21 03:21:51;;;;;;;73.90;40.92;;;;;;;9.44;100.00;101931.66;5218473;28;20022;-72
2023/02/21 03:24:24;;;;;;;80.00;44.22;;;;;;;9.31;100.00;101937.72;5218562;28;20744;-73
2023/02/21 03:26:59;;;;;;;85.55;45.45;;;;;;;9.35;100.00;101934.81;5219041;28;20021;-73
2023/02/21 03:29:32;;;;;;;77.22;45.05;;;;;;;9.27;100.00;101937.91;5220879;28;20490;-73
2023/02/21 03:34:43;;;;;;;80.68;44.70;;;;;;;9.22;100.00;101913.00;5216652;28;20176;-72
2023/02/21 03:37:27;;;;;;;76.43;43.78;;;;;;;9.42;100.00;101916.97;5217921;28;20542;-73
2023/02/21 03:39:59;;;;;;;79.05;43.92;;;;;;;9.27;100.00;101932.69;5225550;28;20033;-73
2023/02/21 03:42:31;;;;;;;70.57;43.20;;;;;;;9.27;100.00;101924.81;5228624;28;20030;-73
2023/02/21 03:45:02;;;;;;;75.30;42.20;;;;;;;9.27;100.00;101931.84;5223842;28;20045;-73
2023/02/21 03:47:33;;;;;;;82.63;44.20;;;;;;;9.31;100.00;101927.25;5219798;28;20018;-73
2023/02/21 03:50:06;;;;;;;75.57;42.67;;;;;;;9.33;100.00;101923.63;5222719;28;20058;-73
2023/02/21 03:52:37;;;;;;;76.47;43.83;;;;;;;9.37;100.00;101921.66;5227837;28;20028;-73
2023/02/21 03:55:08;;;;;;;77.43;44.42;;;;;;;9.36;100.00;101931.28;5221883;28;20292;-73
2023/02/21 03:57:40;;;;;;;76.50;41.38;;;;;;;9.36;100.00;101933.06;5223906;28;20025;-73
2023/02/21 04:00:13;;;;;;;82.18;45.45;;;;;;;9.35;100.00;101937.44;5219438;28;20380;-73
2023/02/21 04:02:44;;;;;;;80.05;43.95;;;;;;;9.33;100.00;101930.63;5229455;28;20053;-73
2023/02/21 04:05:15;;;;;;;80.90;43.88;;;;;;;9.31;100.00;101937.72;5225216;28;20141;-73
2023/02/21 04:07:47;;;;;;;78.40;44.00;;;;;;;9.29;100.00;101932.59;5224741;28;20026;-73
2023/02/21 04:10:18;;;;;;;87.10;44.38;;;;;;;9.27;100.00;101929.22;5224449;28;20592;-73
2023/02/21 04:12:49;;;;;;;75.75;41.80;;;;;;;9.26;100.00;101930.16;5222342;28;20056;-73
2023/02/21 04:15:21;;;;;;;85.53;45.67;;;;;;;9.27;100.00;101931.84;5221738;28;20127;-73
2023/02/21 04:17:52;;;;;;;88.03;44.65;;;;;;;9.35;100.00;101915.66;5223881;28;20036;-73
2023/02/21 04:20:23;;;;;;;84.40;43.55;;;;;;;9.30;100.00;101921.19;5227349;28;20031;-73
2023/02/21 04:22:54;;;;;;;80.47;42.67;;;;;;;9.30;100.00;101920.34;5220225;28;20029;-73
2023/02/21 04:25:26;;;;;;;80.85;43.42;;;;;;;9.30;100.00;101918.59;5222676;28;20079;-73
2023/02/21 04:27:57;;;;;;;84.88;43.83;;;;;;;9.25;100.00;101915.41;5226652;28;20075;-73
2023/02/21 04:30:28;;;;;;;82.03;44.53;;;;;;;9.21;100.00;101917.38;5205503;28;20032;-73
2023/02/21 04:33:00;;;;;;;82.03;42.50;;;;;;;9.20;100.00;101917.47;5220747;28;20052;-73
2023/02/21 04:35:31;;;;;;;80.95;42.80;;;;;;;9.20;100.00;101915.69;5219447;28;20033;-73
2023/02/21 04:38:02;;;;;;;81.35;42.83;;;;;;;9.21;100.00;101912.16;5224641;28;20045;-73
2023/02/21 04:40:33;;;;;;;84.82;44.42;;;;;;;9.21;100.00;101908.69;5223049;28;20026;-72
2023/02/21 04:43:05;;;;;;;84.05;42.70;;;;;;;9.25;100.00;101912.81;5221803;28;20398;-73
2023/02/21 04:45:36;;;;;;;83.30;43.03;;;;;;;9.20;100.00;101915.69;5223316;28;20530;-72
2023/02/21 04:48:07;;;;;;;83.22;44.63;;;;;;;9.28;100.00;101907.41;5230307;28;20112;-73
2023/02/21 04:50:39;;;;;;;78.97;42.75;;;;;;;9.31;100.00;101904.56;5206057;28;20036;-73
2023/02/21 04:53:10;;;;;;;86.30;44.60;;;;;;;9.31;100.00;101901.09;5221927;28;20040;-73
2023/02/21 04:55:41;;;;;;;86.78;44.05;;;;;;;9.23;100.00;101894.59;5219719;28;20133;-73
2023/02/21 04:58:13;;;;;;;83.00;43.15;;;;;;;9.26;100.00;101899.63;5220623;28;20127;-73
2023/02/21 05:00:44;;;;;;;88.78;42.78;;;;;;;9.19;100.00;101892.25;5224521;28;20125;-73
2023/02/21 05:03:17;;;;;;;84.63;44.25;;;;;;;9.26;100.00;101904.03;5228311;28;20028;-73
2023/02/21 05:05:48;;;;;;;83.80;41.90;;;;;;;9.33;100.00;101894.03;5221110;28;20034;-73
2023/02/21 05:08:19;;;;;;;79.00;41.55;;;;;;;9.31;100.00;101903.72;5224472;28;20511;-73
2023/02/21 05:10:50;;;;;;;82.68;41.95;;;;;;;9.23;100.00;101893.75;5221182;28;20021;-73
2023/02/21 05:13:22;;;;;;;85.65;43.65;;;;;;;9.25;100.00;101899.72;5223249;28;20209;-73
2023/02/21 05:15:54;;;;;;;86.90;44.30;;;;;;;9.23;100.00;101906.81;5224333;28;20017;-73
2023/02/21 05:18:27;;;;;;;87.78;44.03;;;;;;;9.11;100.00;101887.50;5203257;28;20517;-73
2023/02/21 05:20:58;;;;;;;85.35;41.72;;;;;;;9.15;100.00;101888.16;5223967;28;20030;-73
2023/02/21 05:23:35;;;;;;;84.03;43.17;;;;;;;9.26;100.00;101902.25;5225327;28;20060;-72
2023/02/21 05:26:11;;;;;;;84.65;42.53;;;;;;;9.34;100.00;101908.78;5223244;28;20022;-73
2023/02/21 05:28:43;;;;;;;81.15;40.03;;;;;;;9.20;100.00;101901.78;5225482;28;21762;-73
2023/02/21 05:31:14;;;;;;;79.38;41.90;;;;;;;9.19;100.00;101905.34;5221033;28;20030;-72
2023/02/21 05:33:45;;;;;;;85.90;42.83;;;;;;;9.22;100.00;101913.00;5223150;28;20124;-72
2023/02/21 05:36:17;;;;;;;80.50;40.20;;;;;;;9.21;100.00;101908.69;5221269;28;20025;-73
2023/02/21 05:38:51;;;;;;;84.03;42.25;;;;;;;9.32;100.00;101908.00;5223919;28;20046;-73
2023/02/21 05:41:23;;;;;;;75.40;39.53;;;;;;;9.22;100.00;101905.97;5224715;28;20030;-73
2023/02/21 05:43:54;;;;;;;83.47;41.10;;;;;;;9.25;100.00;101918.03;5224039;28;20048;-72
2023/02/21 05:46:28;;;;;;;83.63;41.03;;;;;;;9.29;100.00;101916.06;5224742;28;20383;-73
2023/02/21 05:49:02;;;;;;;77.47;39.08;;;;;;;9.30;100.00;101920.34;5222295;28;20079;-73
2023/02/21 05:51:40;;;;;;;73.70;39.33;;;;;;;9.39;100.00;101915.38;5219237;28;20077;-72
2023/02/21 05:54:15;;;;;;;87.93;42.33;;;;;;;9.35;100.00;101916.50;5220665;28;21527;-74
2023/02/21 05:56:50;;;;;;;87.32;40.97;;;;;;;9.34;100.00;101908.78;5221717;28;20183;-72
2023/02/21 05:59:22;;;;;;;87.05;39.97;;;;;;;9.21;100.00;101912.16;5219844;28;20475;-73
2023/02/21 06:01:54;;;;;;;76.20;38.90;;;;;;;9.21;100.00;101913.94;5224978;28;20053;-73
2023/02/21 06:04:25;;;;;;;78.80;40.45;;;;;;;9.27;100.00;101910.91;5222698;28;20768;-73
2023/02/21 06:06:57;;;;;;;80.72;38.53;;;;;;;9.29;100.00;101919.53;5216469;28;20036;-72
2023/02/21 06:09:29;;;;;;;70.53;37.97;;;;;;;9.25;100.00;101913.63;5218152;28;20033;-72
2023/02/21 06:12:02;;;;;;;72.63;37.15;;;;;;;9.20;100.00;101912.22;5221344;28;20064;-72
2023/02/21 06:14:33;;;;;;;69.32;37.30;;;;;;;9.20;100.00;101920.91;5217190;28;20479;-74
2023/02/21 06:17:04;;;;;;;61.40;35.15;;;;;;;9.19;100.00;101924.47;5221126;28;20029;-73
2023/02/21 06:19:36;;;;;;;70.30;35.92;;;;;;;9.22;100.00;101921.66;5200414;28;20158;-72
2023/02/21 06:22:07;;;;;;;62.78;35.05;;;;;;;9.23;100.00;101923.34;5221211;28;20034;-73
2023/02/21 06:24:38;;;;;;;60.40;32.50;;;;;;;9.26;100.00;101924.94;5215990;28;20052;-73
2023/02/21 06:27:09;;;;;;;62.20;32.92;;;;;;;9.20;100.00;101910.44;5213414;28;20033;-72
2023/02/21 06:29:41;;;;;;;64.22;33.88;;;;;;;9.24;100.00;101918.94;5215088;28;20447;-72
2023/02/21 06:32:12;;;;;;;57.65;32.97;;;;;;;9.24;100.00;101916.34;5214664;28;20038;-74
2023/02/21 06:34:43;;;;;;;55.42;30.75;;;;;;;9.22;100.00;101913.00;5214814;28;20141;-72
2023/02/21 06:37:17;;;;;;;52.85;31.10;;;;;;;9.27;100.00;101916.16;5219712;28;20037;-73
2023/02/21 06:39:48;;;;;;;;;;;;;;;9.84;100.00;101923.88;5221463;28;20580;-72
2023/02/21 06:42:20;;;;;;;44.57;28.50;;;;;;;9.22;100.00;101921.66;5206302;28;19920;-73
2023/02/21 06:44:51;;;;;;;44.10;26.90;;;;;;;9.21;100.00;101925.22;5217026;28;20810;-75
2023/02/21 06:47:22;;;;;;;38.03;24.27;;;;;;;9.18;100.00;101922.78;5220037;28;20033;-72
2023/02/21 06:49:54;;;;;;;39.58;25.88;;;;;;;9.15;100.00;101927.38;5213821;28;20030;-73
2023/02/21 06:52:25;;;;;;;38.70;24.77;;;;;;;9.14;100.00;101925.69;5198945;28;20080;-73
2023/02/21 06:54:56;;;;;;;35.15;22.42;;;;;;;9.08;100.00;101920.84;5221879;28;20047;-72
2023/02/21 06:57:27;;;;;;;36.50;22.92;;;;;;;9.05;100.00;101916.63;5199487;28;20033;-75
2023/02/21 06:59:59;;;;;;;34.47;23.50;;;;;;;9.05;100.00;101921.84;5212382;28;20167;-73
2023/02/21 07:02:30;;;;;;;34.55;22.17;;;;;;;9.04;100.00;101929.81;5211763;28;20036;-74
2023/02/21 07:05:01;;;;;;;33.35;22.45;;;;;;;8.99;100.00;101927.47;5214452;28;20096;-73
2023/02/21 07:07:33;;;;;;;34.42;21.40;;;;;;;8.99;100.00;101925.69;5213470;28;20354;-74
2023/02/21 07:10:05;;;;;;;33.28;21.60;;;;;;;8.95;100.00;101920.75;5217520;28;20036;-73
2023/02/21 07:12:36;;;;;;;38.92;22.98;;;;;;;8.92;100.00;101926.16;5212075;28;20038;-75
2023/02/21 07:15:07;;;;;;;34.63;22.60;;;;;;;8.93;100.00;101926.06;5217957;28;20386;-75
2023/02/21 07:17:40;;;;;;;37.05;23.58;;;;;;;8.95;100.00;101929.44;5219960;28;20429;-73
2023/02/21 07:20:12;;;;;;;37.92;23.33;;;;;;;8.98;100.00;101920.56;5213996;28;20483;-74
2023/02/21 07:22:43;;;;;;;36.38;22.67;;;;;;;8.90;100.00;101912.34;5219576;28;20121;-74
2023/02/21 07:25:16;;;;;;;41.13;22.38;;;;;;;8.98;100.00;101920.56;5221843;28;20541;-73
2023/02/21 07:27:48;;;;;;;;;;;;;;;9.60;100.00;101922.81;5219200;28;20041;-74
2023/02/21 07:30:20;;;;;;;34.35;20.83;;;;;;;9.06;100.00;101926.16;5219611;28;19917;-73
2023/02/21 07:32:51;;;;;;;35.03;21.42;;;;;;;9.06;100.00;101927.94;5218392;28;20041;-74
2023/02/21 07:35:22;;;;;;;37.95;22.27;;;;;;;9.07;100.00;101927.00;5219875;28;20481;-74
2023/02/21 07:37:54;;;;;;;37.53;21.80;;;;;;;9.01;100.00;101926.44;5217832;28;20384;-73
2023/02/21 07:40:25;;;;;;;34.90;20.98;;;;;;;9.05;100.00;101934.09;5219596;28;20965;-74
2023/02/21 07:42:56;;;;;;;36.17;21.05;;;;;;;9.04;100.00;101929.81;5220651;28;20029;-75
2023/02/21 07:45:28;;;;;;;33.42;21.60;;;;;;;9.02;100.00;101922.91;5221227;28;20072;-73
2023/02/21 07:47:59;;;;;;;35.20;21.65;;;;;;;9.01;100.00;101925.59;5218679;28;20096;-73
2023/02/21 07:50:30;;;;;;;37.72;22.75;;;;;;;9.02;100.00;101930.75;5221565;28;20025;-75
2023/02/21 07:53:01;;;;;;;34.85;21.17;;;;;;;9.00;100.00;101929.97;5214902;28;20073;-73
2023/02/21 07:55:33;;;;;;;33.75;20.83;;;;;;;9.01;100.00;101930.81;5219648;28;20523;-73
2023/02/21 07:58:05;;;;;;;34.58;21.15;;;;;;;9.04;100.00;101933.25;5225110;28;20018;-73
2023/02/21 08:00:37;;;;;;;32.22;19.83;;;;;;;8.98;100.00;101928.41;5213387;28;20025;-74
2023/02/21 08:03:12;;;;;;;26.63;18.73;;;;;;;9.03;100.00;101936.81;5211100;28;20063;-74
2023/02/21 08:05:45;;;;;;;25.63;16.80;;;;;;;8.91;100.00;101925.31;5216047;28;20068;-73
2023/02/21 08:08:17;;;;;;;27.75;18.30;;;;;;;8.89;100.00;101918.50;5220929;28;20427;-72
2023/02/21 08:10:48;;;;;;;25.40;17.27;;;;;;;8.86;100.00;101926.53;5222474;28;20156;-73
2023/02/21 08:13:19;;;;;;;23.77;16.75;;;;;;;8.83;100.00;101930.19;5222283;28;20475;-73
2023/02/21 08:15:51;;;;;;;22.58;15.88;;;;;;;8.81;100.00;101939.88;5219436;28;20021;-73
2023/02/21 08:18:23;;;;;;;23.00;15.85;;;;;;;8.87;100.00;101931.69;5222794;28;20029;-73
2023/02/21 08:20:58;;;;;;;23.42;16.40;;;;;;;8.89;100.00;101926.34;5224735;28;20087;-73
2023/02/21 08:23:29;;;;;;;26.00;16.35;;;;;;;8.93;100.00;101918.22;5220788;28;20022;-73
2023/02/21 08:26:03;;;;;;;25.02;16.73;;;;;;;8.94;100.00;101930.38;5222335;28;20486;-73
2023/02/21 08:28:36;;;;;;;25.52;16.92;;;;;;;8.88;100.00;101937.75;5225556;28;20554;-73
2023/02/21 08:31:07;;;;;;;26.75;17.90;;;;;;;8.93;100.00;101938.28;5223270;28;20033;-73
2023/02/21 08:33:39;;;;;;;25.63;17.77;;;;;;;8.95;100.00;101932.03;5214788;28;20036;-72
2023/02/21 08:36:10;;;;;;;27.58;18.02;;;;;;;8.93;100.00;101918.22;5218092;28;20033;-73
2023/02/21 08:38:42;;;;;;;23.85;16.55;;;;;;;8.91;100.00;101925.31;5219543;28;20096;-73
2023/02/21 08:41:14;;;;;;;26.20;18.42;;;;;;;8.91;100.00;101919.25;5216288;28;20037;-73
2023/02/21 08:43:46;;;;;;;24.70;17.27;;;;;;;8.92;100.00;101929.63;5214851;28;20541;-74
2023/02/21 08:46:17;;;;;;;23.67;16.77;;;;;;;8.91;100.00;101927.09;5213448;28;20033;-73
2023/02/21 08:48:48;;;;;;;24.42;17.27;;;;;;;8.97;100.00;101927.56;5214442;28;20030;-73
2023/02/21 08:51:27;;;;;;;28.00;17.20;;;;;;;9.01;100.00;101928.19;5221764;28;20051;-73
2023/02/21 08:53:59;;;;;;;25.02;17.30;;;;;;;8.92;100.00;101920.94;5221154;28;20029;-73
2023/02/21 08:56:30;;;;;;;23.63;16.27;;;;;;;8.96;100.00;101919.81;5221634;28;20533;-73
2023/02/21 08:59:03;;;;;;;22.70;15.93;;;;;;;8.96;100.00;101917.19;5221264;28;20033;-73
2023/02/21 09:01:34;;;;;;;23.83;16.55;;;;;;;9.05;100.00;101913.19;5220734;28;20400;-73
2023/02/21 09:04:05;;;;;;;24.42;16.48;;;;;;;8.98;100.00;101910.13;5216313;28;20025;-73
2023/02/21 09:06:37;;;;;;;25.23;16.67;;;;;;;9.05;100.00;101908.78;5224164;28;20079;-73
2023/02/21 09:09:08;;;;;;;23.20;15.82;;;;;;;9.07;100.00;101913.94;5222387;28;20030;-73
2023/02/21 09:11:41;;;;;;;25.50;16.83;;;;;;;9.10;100.00;101918.97;5214588;28;20021;-74
2023/02/21 09:14:13;;;;;;;;;;;;;;;9.75;100.00;101906.16;5222141;28;20041;-73
2023/02/21 09:16:44;;;;;;;20.90;15.38;;;;;;;9.24;100.00;101914.59;5227254;28;19914;-75
2023/02/21 09:19:16;;;;;;;22.40;15.75;;;;;;;9.19;100.00;101907.94;5221722;28;20030;-72
2023/02/21 09:21:54;;;;;;;22.13;15.70;;;;;;;9.19;100.00;101913.19;5223991;28;20069;-73
2023/02/21 09:24:26;;;;;;;22.90;15.88;;;;;;;9.15;100.00;101906.47;5219619;28;20075;-74
2023/02/21 09:26:58;;;;;;;25.43;17.60;;;;;;;9.19;100.00;101913.19;5222568;28;20021;-73
2023/02/21 09:29:32;;;;;;;24.23;15.73;;;;;;;9.27;100.00;101903.91;5219521;28;20032;-73
2023/02/21 09:32:04;;;;;;;23.60;16.02;;;;;;;9.24;100.00;101908.50;5210156;28;20034;-75
2023/02/21 09:34:35;;;;;;;24.10;16.30;;;;;;;9.28;100.00;101907.41;5218852;28;20021;-73
2023/02/21 09:37:06;;;;;;;24.10;16.50;;;;;;;9.28;100.00;101896.94;5214756;28;20037;-74
2023/02/21 09:39:38;;;;;;;25.00;16.52;;;;;;;9.31;100.00;101901.09;5219039;28;20156;-73
2023/02/21 09:42:15;;;;;;;24.90;16.83;;;;;;;9.52;100.00;101898.94;5216421;28;20025;-75
2023/02/21 09:44:46;;;;;;;24.20;17.38;;;;;;;9.42;100.00;101896.03;5221302;28;20446;-73
2023/02/21 09:47:31;;;;;;;25.65;17.25;;;;;;;9.56;100.00;101892.56;5215675;28;20037;-73
2023/02/21 09:50:11;;;;;;;24.45;17.23;;;;;;;9.53;100.00;101898.81;5219035;28;20045;-74
2023/02/21 09:52:43;;;;;;;25.05;16.25;;;;;;;9.45;100.00;101894.06;5216108;28;20030;-73
2023/02/21 09:55:26;;;;;;;22.65;15.90;;;;;;;9.59;100.00;101902.84;5220593;28;20434;-73
2023/02/21 09:57:57;;;;;;;23.40;15.82;;;;;;;9.50;100.00;101902.47;5216359;28;20029;-73
2023/02/21 10:00:34;;;;;;;23.88;16.85;;;;;;;9.59;100.00;101906.28;5220662;28;20036;-74
2023/02/21 10:03:36;;;;;;;24.95;16.58;;;;;;;9.74;100.00;101910.53;5218622;28;20133;-73
2023/02/21 10:06:35;;;;;;;21.33;15.48;;;;;;;9.67;100.00;101906.63;5194673;28;20160;-73
2023/02/21 10:09:25;;;;;;;24.52;16.35;;;;;;;9.79;100.00;101917.25;5205083;28;20018;-74
2023/02/21 10:12:11;;;;;;;23.83;15.90;;;;;;;9.68;100.00;101910.94;5210160;28;20494;-73
2023/02/21 10:15:04;;;;;;;25.65;16.67;;;;;;;9.82;100.00;101915.28;5211664;28;20060;-73
2023/02/21 10:17:56;;;;;;;23.70;16.38;;;;;;;9.85;100.00;101916.84;5217012;28;20050;-74
2023/02/21 10:20:58;;;;;;;23.70;16.43;;;;;;;9.63;100.00;101912.19;5217868;28;20037;-73
2023/02/21 10:23:50;;;;;;;22.17;15.73;;;;;;;9.76;100.00;101915.66;5211611;28;20388;-73
2023/02/21 10:26:27;;;;;;;22.17;14.48;;;;;;;9.50;100.00;101901.63;5214028;28;20376;-74
2023/02/21 10:28:59;;;;;;;22.63;15.90;;;;;;;9.44;100.00;101902.03;5219297;28;20033;-75
2023/02/21 10:31:35;;;;;;;24.25;16.08;;;;;;;9.55;100.00;101904.81;5214320;28;20037;-73
2023/02/21 10:34:19;;;;;;;23.15;15.23;;;;;;;9.66;100.00;101909.34;5220123;28;20065;-75
2023/02/21 10:36:53;;;;;;;27.80;16.30;;;;;;;9.53;100.00;101900.59;5218988;28;20033;-73
2023/02/21 10:39:48;;;;;;;26.20;16.48;;;;;;;9.79;100.00;101912.84;5197351;28;20161;-73
2023/02/21 10:42:31;;;;;;;23.30;16.00;;;;;;;9.59;100.00;101910.69;5192601;28;20050;-73
2023/02/21 10:45:03;;;;;;;23.60;15.83;;;;;;;9.48;100.00;101906.13;5199512;28;20512;-73
2023/02/21 10:47:52;;;;;;;23.48;14.32;;;;;;;9.63;100.00;101907.78;5194460;28;20039;-73
2023/02/21 10:50:50;;;;;;;22.30;14.32;;;;;;;9.79;100.00;101912.84;5188744;28;20100;-73
2023/02/21 10:53:30;;;;;;;22.50;14.52;;;;;;;9.61;100.00;101914.88;5194580;28;20074;-74
2023/02/21 10:56:23;;;;;;;23.48;15.27;;;;;;;9.71;100.00;101915.13;5187805;28;20069;-73
2023/02/21 10:59:04;;;;;;;20.92;13.88;;;;;;;9.54;100.00;101907.50;5192502;28;20397;-73
2023/02/21 11:01:44;;;;;;;18.67;13.15;;;;;;;9.59;100.00;101902.84;5192488;28;20456;-74
2023/02/21 11:04:18;;;;;;;21.60;14.10;;;;;;;9.60;100.00;101904.50;5196819;28;20034;-74
2023/02/21 11:06:56;;;;;;;22.95;15.43;;;;;;;9.63;100.00;101899.09;5199142;28;20025;-74
2023/02/21 11:09:59;;;;;;;22.83;14.30;;;;;;;10.08;100.00;101894.44;5200113;28;20030;-73
2023/02/21 11:12:30;;;;;;;22.27;14.45;;;;;;;9.80;100.00;101888.34;5152799;28;20044;-73
2023/02/21 11:15:28;;;;;;;20.55;13.38;;;;;;;10.19;100.00;101887.53;5196637;28;20394;-74
2023/02/21 11:18:12;;;;;;;20.00;13.48;;;;;;;10.05;100.00;101882.38;5196575;28;20043;-73
2023/02/21 11:20:45;;;;;;;22.05;13.82;;;;;;;9.97;100.00;101880.25;5198037;28;20054;-75
2023/02/21 11:23:26;;;;;;;19.65;13.13;;;;;;;10.13;100.00;101879.25;5193133;28;20653;-73
2023/02/21 11:26:06;;;;;;;19.88;12.45;;;;;;;10.03;100.00;101881.63;5196723;28;20395;-75
2023/02/21 11:28:42;;;;;;;20.02;13.80;;;;;;;10.08;100.00;101871.69;5199441;28;20034;-73
2023/02/21 11:31:27;;;;;;;18.98;12.20;;;;;;;10.07;100.00;101874.41;5199724;28;20046;-73
2023/02/21 11:34:02;;;;;;;19.27;12.82;;;;;;;10.04;100.00;101859.75;5199263;28;20033;-74
2023/02/21 11:36:36;;;;;;;21.80;12.82;;;;;;;10.12;100.00;101873.19;5193963;28;20022;-74
2023/02/21 11:39:26;;;;;;;20.13;12.40;;;;;;;10.30;100.00;101870.28;5210285;28;20099;-74
2023/02/21 11:42:02;;;;;;;19.60;13.00;;;;;;;10.25;100.00;101849.63;5222704;28;20041;-73
2023/02/21 11:44:37;;;;;;;21.02;13.40;;;;;;;10.33;100.00;101857.81;5217094;28;20046;-73
2023/02/21 11:47:34;;;;;;;21.40;13.60;;;;;;;10.41;100.00;101855.50;5216014;28;20038;-73
2023/02/21 11:50:23;;;;;;;17.88;12.40;;;;;;;10.08;100.00;101858.63;5214846;28;21315;-73
2023/02/21 11:53:16;;;;;;;21.38;13.32;;;;;;;10.20;100.00;101849.09;5219406;28;20030;-74
2023/02/21 11:56:01;;;;;;;18.23;11.83;;;;;;;10.05;100.00;101834.41;5218196;28;20297;-73
2023/02/21 11:58:50;;;;;;;17.15;11.80;;;;;;;10.21;100.00;101848.16;5215123;28;20029;-73
2023/02/21 12:01:41;;;;;;;18.58;11.32;;;;;;;10.20;100.00;101844.69;5224563;28;20024;-74
2023/02/21 12:04:28;;;;;;;17.85;11.45;;;;;;;10.14;100.00;101842.47;5209505;28;20037;-75
2023/02/21 12:07:21;;;;;;;19.02;12.05;;;;;;;10.04;100.00;101843.19;5184009;28;20073;-73
2023/02/21 12:10:06;;;;;;;21.17;13.02;;;;;;;10.16;100.00;101837.97;5205767;28;20148;-73
2023/02/21 12:12:53;;;;;;;18.55;11.85;;;;;;;10.15;100.00;101836.31;5211601;28;20026;-73
2023/02/21 12:16:00;;;;;;;18.27;11.45;;;;;;;10.06;100.00;101830.84;5217216;28;20036;-75
2023/02/21 12:18:48;;;;;;;18.30;10.77;;;;;;;10.28;100.00;101823.25;5122684;29;20043;-74
2023/02/21 12:21:25;;;;;;;20.05;11.95;;;;;;;10.18;100.00;101830.84;5213521;28;20103;-73
2023/02/21 12:24:16;;;;;;;15.45;10.77;;;;;;;10.26;100.00;101830.34;5211876;28;20398;-75
2023/02/21 12:26:57;;;;;;;18.60;11.45;;;;;;;10.42;100.00;101831.00;5214808;28;20581;-75
2023/02/21 12:29:42;;;;;;;16.15;10.85;;;;;;;10.37;100.00;101829.63;5215540;28;20049;-74
2023/02/21 12:32:35;;;;;;;16.55;10.00;;;;;;;10.68;100.00;101825.72;5212418;28;20500;-74
2023/02/21 12:35:27;;;;;;;14.10;10.18;;;;;;;10.58;100.00;101824.72;5215864;28;20451;-73
2023/02/21 12:38:09;;;;;;;13.98;8.82;;;;;;;10.58;100.00;101817.69;5218912;28;20403;-73
2023/02/21 12:41:17;;;;;;;13.85;9.52;;;;;;;10.73;100.00;101810.56;5220200;28;20398;-74
2023/02/21 12:44:07;;;;;;;13.70;9.13;;;;;;;10.66;100.00;101806.69;5217554;28;20100;-74
2023/02/21 12:46:56;;;;;;;14.93;9.52;;;;;;;10.64;100.00;101792.84;5216978;28;20026;-73
2023/02/21 12:49:41;;;;;;;13.75;8.70;;;;;;;10.74;100.00;101803.53;5214425;28;20125;-74
2023/02/21 12:52:27;;;;;;;14.70;9.82;;;;;;;10.72;100.00;101803.63;5215118;28;20144;-73
2023/02/21 12:55:19;;;;;;;13.32;9.25;;;;;;;10.79;100.00;101796.16;5215346;28;20562;-73
2023/02/21 12:57:59;;;;;;;11.65;8.43;;;;;;;10.60;100.00;101784.34;5217003;28;20032;-74
2023/02/21 13:00:36;;;;;;;12.95;8.38;;;;;;;10.55;100.00;101802.19;5215334;28;20025;-74
2023/02/21 13:03:27;;;;;;;11.23;7.88;;;;;;;10.76;100.00;101799.00;5213933;28;20671;-74
2023/02/21 13:06:22;;;;;;;13.52;7.78;;;;;;;10.78;100.00;101790.09;5218263;28;20022;-73
2023/02/21 13:09:09;;;;;;;14.52;9.18;;;;;;;10.70;100.00;101793.25;5218379;28;20079;-73
2023/02/21 13:12:02;;;;;;;12.32;8.73;;;;;;;10.55;100.00;101791.69;5222811;28;20386;-74
2023/02/21 13:14:52;;;;;;;12.35;8.93;;;;;;;10.62;100.00;101792.94;5215735;28;20475;-73
2023/02/21 13:17:25;;;;;;;10.63;7.47;;;;;;;10.51;100.00;101797.25;5219743;28;20030;-75
2023/02/21 13:20:06;;;;;;;12.75;8.60;;;;;;;10.53;100.00;101784.88;5222565;28;20390;-73
2023/02/21 13:23:14;;;;;;;14.40;8.98;;;;;;;10.76;100.00;101784.13;5219037;28;20033;-74
2023/02/21 13:26:00;;;;;;;14.40;9.70;;;;;;;10.54;100.00;101782.16;5220766;28;20033;-73
2023/02/21 13:28:35;;;;;;;16.88;10.90;;;;;;;10.44;100.00;101787.19;5220122;28;20032;-75
2023/02/21 13:31:18;;;;;;;15.18;10.77;;;;;;;10.48;100.00;101780.78;5219096;28;20034;-73
2023/02/21 13:33:53;;;;;;;15.82;11.50;;;;;;;10.33;100.00;101778.41;5223395;28;20029;-75
2023/02/21 13:36:29;;;;;;;17.70;10.98;;;;;;;10.31;100.00;101778.53;5225997;28;20025;-73
2023/02/21 13:39:14;;;;;;;17.08;10.82;;;;;;;10.38;100.00;101769.31;5224669;28;20049;-73
2023/02/21 13:41:54;;;;;;;16.98;11.80;;;;;;;10.32;100.00;101759.22;5219839;28;20491;-74
2023/02/21 13:44:31;;;;;;;17.67;11.85;;;;;;;10.31;100.00;101762.81;5221098;28;20049;-74
2023/02/21 13:47:15;;;;;;;17.55;12.25;;;;;;;10.30;100.00;101755.88;5205133;28;20045;-74
2023/02/21 13:49:53;;;;;;;18.20;12.23;;;;;;;10.35;100.00;101766.06;5203362;28;20036;-73
2023/02/21 13:52:33;;;;;;;18.00;12.38;;;;;;;10.30;100.00;101768.97;5225375;28;20052;-74
2023/02/21 13:55:12;;;;;;;18.98;12.75;;;;;;;10.35;100.00;101766.88;5219318;28;20112;-73
2023/02/21 13:58:12;;;;;;;17.45;12.35;;;;;;;10.52;100.00;101762.25;5222379;28;20030;-73
2023/02/21 14:00:49;;;;;;;18.67;13.23;;;;;;;10.22;100.00;101768.63;5221926;28;20117;-73
2023/02/21 14:03:21;;;;;;;19.63;13.10;;;;;;;10.08;100.00;101766.13;5219176;28;20541;-73
2023/02/21 14:05:55;;;;;;;17.67;12.95;;;;;;;10.17;100.00;101763.72;5221138;28;20604;-73
2023/02/21 14:08:46;;;;;;;16.65;12.18;;;;;;;10.21;100.00;101749.47;5222636;28;20030;-73
2023/02/21 14:11:27;;;;;;;18.08;13.50;;;;;;;10.09;100.00;101762.56;5218461;28;20156;-73
2023/02/21 14:14:03;;;;;;;18.67;13.30;;;;;;;10.15;100.00;101749.03;5218191;28;20041;-74